createdAt,value
2022-11-03T04:58:36.233Z,11.10
2022-11-03T05:01:39.778Z,11.12
2022-11-03T05:04:42.903Z,9.52
2022-11-03T05:07:48.387Z,8.60
2022-11-03T05:10:50.945Z,9.48
2022-11-03T05:13:53.784Z,14.60
2022-11-03T05:16:57.102Z,10.85
2022-11-03T05:20:02.992Z,8.32
2022-11-03T05:23:06.301Z,9.68
2022-11-03T05:26:18.119Z,11.20
2022-11-03T05:29:35.715Z,9.38
2022-11-03T05:32:38.469Z,12.55
2022-11-03T05:35:43.118Z,12.40
2022-11-03T05:38:46.029Z,12.23
2022-11-03T05:41:48.657Z,12.20
2022-11-03T05:44:51.918Z,14.73
2022-11-03T05:47:55.825Z,19.55
2022-11-03T05:51:00.554Z,16.25
2022-11-03T05:54:05.898Z,21.05
2022-11-03T05:57:11.881Z,31.85
2022-11-03T06:00:48.177Z,20.35
2022-11-03T06:03:52.114Z,27.13
2022-11-03T06:06:59.147Z,24.10
2022-11-03T06:10:01.930Z,25.02
2022-11-03T06:13:27.237Z,30.70
2022-11-03T06:16:32.679Z,18.42
2022-11-03T06:19:42.168Z,30.30
2022-11-03T06:22:45.699Z,28.48
2022-11-03T06:25:48.992Z,29.00
2022-11-03T06:28:51.703Z,22.27
2022-11-03T06:31:58.065Z,36.05
2022-11-03T06:35:01.211Z,17.75
2022-11-03T06:38:05.544Z,15.50
2022-11-03T06:41:20.930Z,10.70
2022-11-03T06:44:26.168Z,15.77
2022-11-03T06:47:29.658Z,11.80
2022-11-03T06:50:33.159Z,11.18
2022-11-03T06:53:36.765Z,14.48
2022-11-03T06:56:39.538Z,13.68
2022-11-03T06:59:42.463Z,10.85
2022-11-03T07:03:08.147Z,10.20
2022-11-03T07:06:11.291Z,9.93
2022-11-03T07:09:22.890Z,11.77
2022-11-03T07:12:25.722Z,11.57
2022-11-03T07:15:32.204Z,12.70
2022-11-03T07:18:40.819Z,14.15
2022-11-03T07:21:56.560Z,15.32
2022-11-03T07:25:03.984Z,11.70
2022-11-03T07:28:06.666Z,10.88
2022-11-03T07:31:36.015Z,9.98
2022-11-03T07:34:38.448Z,13.37
2022-11-03T07:37:41.389Z,13.65
2022-11-03T07:40:44.081Z,12.75
2022-11-03T07:44:00.956Z,13.25
2022-11-03T07:47:03.395Z,12.60
2022-11-03T07:50:14.891Z,15.00
2022-11-03T07:53:26.248Z,13.43
2022-11-03T07:56:34.200Z,11.40
2022-11-03T07:59:43.620Z,15.50
2022-11-03T08:05:55.680Z,13.68
2022-11-03T08:08:58.270Z,14.18
2022-11-03T08:12:01.395Z,13.35
2022-11-03T08:15:04.095Z,19.23
2022-11-03T08:18:06.895Z,18.52
2022-11-03T08:21:09.660Z,16.23
2022-11-03T08:24:12.501Z,20.27
2022-11-03T08:27:15.036Z,21.48
2022-11-03T08:30:17.988Z,21.27
2022-11-03T08:33:20.545Z,22.05
2022-11-03T08:36:23.428Z,24.35
2022-11-03T08:39:25.981Z,23.20
2022-11-03T08:42:28.756Z,22.90
2022-11-03T08:45:31.372Z,21.27
2022-11-03T08:48:34.401Z,28.10
2022-11-03T08:51:41.424Z,30.45
2022-11-03T08:54:49.119Z,25.12
2022-11-03T08:57:51.854Z,26.50
2022-11-03T09:00:54.691Z,26.95
2022-11-03T09:03:57.207Z,25.50
2022-11-03T09:07:00.191Z,31.37
2022-11-03T09:13:20.878Z,26.55
2022-11-03T09:16:23.350Z,27.80
2022-11-03T09:19:26.299Z,26.10
2022-11-03T09:22:28.981Z,23.75
2022-11-03T09:25:31.796Z,25.80
2022-11-03T09:28:34.259Z,27.90
2022-11-03T09:31:37.030Z,24.85
2022-11-03T09:34:39.483Z,25.23
2022-11-03T09:37:42.242Z,26.00
2022-11-03T09:40:45.029Z,26.27
2022-11-03T09:43:48.598Z,27.13
2022-11-03T09:46:55.426Z,28.30
2022-11-03T09:50:05.109Z,28.52
2022-11-03T09:53:12.125Z,25.37
2022-11-03T09:56:18.225Z,27.10
2022-11-03T09:59:22.873Z,25.30
2022-11-03T10:02:31.506Z,37.22
2022-11-03T10:05:34.643Z,30.47
2022-11-03T10:08:39.945Z,29.75
2022-11-03T10:11:43.854Z,29.67
2022-11-03T10:14:47.374Z,31.12
2022-11-03T10:17:51.308Z,32.92
2022-11-03T10:20:53.731Z,29.00
2022-11-03T10:23:56.631Z,29.60
2022-11-03T10:26:59.144Z,27.50
2022-11-03T10:30:07.979Z,29.85
2022-11-03T10:33:26.024Z,25.98
2022-11-03T10:36:31.555Z,27.98
2022-11-03T10:39:34.015Z,28.23
2022-11-03T10:42:36.841Z,29.05
2022-11-03T10:45:39.352Z,27.20
2022-11-03T10:48:42.247Z,27.60
2022-11-03T10:51:48.934Z,29.67
2022-11-03T10:54:53.635Z,28.20
2022-11-03T10:57:58.511Z,30.02
2022-11-03T11:01:01.427Z,25.30
2022-11-03T11:04:04.664Z,22.13
2022-11-03T11:07:24.923Z,26.35
2022-11-03T11:10:30.286Z,29.63
2022-11-03T11:13:33.073Z,29.92
2022-11-03T11:16:49.987Z,27.52
2022-11-03T11:20:31.615Z,33.75
2022-11-03T11:23:34.049Z,30.27
2022-11-03T11:26:37.971Z,31.70
2022-11-03T11:29:40.867Z,28.67
2022-11-03T11:32:46.389Z,29.95
2022-11-03T11:35:48.838Z,27.83
2022-11-03T11:38:52.373Z,31.62
2022-11-03T11:42:17.558Z,27.58
2022-11-03T11:45:58.619Z,31.58
2022-11-03T11:49:03.996Z,29.60
2022-11-03T11:52:10.553Z,27.25
2022-11-03T11:55:39.270Z,28.48
2022-11-03T11:58:46.467Z,28.87
2022-11-03T12:01:52.031Z,28.73
2022-11-03T12:05:03.713Z,31.58
2022-11-03T12:08:21.067Z,31.48
2022-11-03T12:11:55.409Z,31.70
2022-11-03T12:14:58.769Z,31.75
2022-11-03T12:18:38.108Z,36.65
2022-11-03T12:21:50.211Z,33.92
2022-11-03T12:25:00.821Z,36.75
2022-11-03T12:28:03.562Z,31.73
2022-11-03T12:31:06.479Z,37.58
2022-11-03T12:34:08.954Z,35.17
2022-11-03T12:37:12.435Z,35.45
2022-11-03T12:40:15.077Z,36.42
2022-11-03T12:43:17.830Z,33.67
2022-11-03T12:46:22.278Z,32.00
2022-11-03T12:49:25.279Z,34.63
2022-11-03T12:52:27.797Z,33.83
2022-11-03T12:55:30.596Z,35.88
2022-11-03T12:58:33.229Z,35.00
2022-11-03T13:01:36.347Z,34.75
2022-11-03T13:04:39.128Z,43.75
2022-11-03T13:07:43.206Z,36.70
2022-11-03T13:10:45.694Z,44.58
2022-11-03T13:13:48.381Z,38.53
2022-11-03T13:16:50.890Z,38.15
2022-11-03T13:19:54.879Z,36.22
2022-11-03T13:22:57.364Z,37.63
2022-11-03T13:26:00.211Z,32.53
2022-11-03T13:29:02.901Z,31.05
2022-11-03T13:32:06.098Z,25.33
2022-11-03T13:35:13.793Z,28.20
2022-11-03T13:38:16.885Z,26.67
2022-11-03T13:41:19.590Z,24.95
2022-11-03T13:44:22.706Z,26.27
2022-11-03T13:47:34.339Z,29.63
2022-11-03T13:50:50.906Z,26.08
2022-11-03T14:00:38.752Z,24.95
2022-11-03T14:07:05.573Z,29.35
2022-11-03T14:10:08.594Z,30.17
2022-11-03T14:13:11.776Z,26.45
2022-11-03T14:16:14.513Z,25.12
2022-11-03T14:19:17.044Z,26.52
2022-11-03T14:22:24.197Z,29.52
2022-11-03T14:25:26.605Z,23.70
2022-11-03T14:28:29.318Z,28.27
2022-11-03T14:31:32.353Z,29.73
2022-11-03T14:34:35.405Z,23.62
2022-11-03T14:37:38.722Z,27.40
2022-11-03T14:41:00.114Z,26.40
2022-11-03T14:44:03.439Z,26.23
2022-11-03T14:47:09.104Z,24.90
2022-11-03T14:50:11.597Z,26.35
2022-11-03T14:53:14.626Z,25.15
2022-11-03T14:56:17.093Z,24.27
2022-11-03T14:59:20.898Z,26.12
2022-11-03T15:02:23.449Z,30.40
2022-11-03T15:05:44.523Z,25.35
2022-11-03T15:08:50.762Z,29.83
2022-11-03T15:11:56.425Z,25.27
2022-11-03T15:14:59.080Z,30.85
2022-11-03T15:18:03.731Z,30.62
2022-11-03T15:21:06.564Z,30.50
2022-11-03T15:27:32.116Z,24.77
2022-11-03T15:30:35.489Z,23.27
2022-11-03T15:33:38.076Z,23.77
2022-11-03T15:36:40.816Z,25.12
2022-11-03T15:39:43.402Z,26.42
2022-11-03T15:42:46.557Z,20.80
2022-11-03T15:45:49.019Z,20.92
2022-11-03T15:48:54.453Z,23.98
2022-11-03T15:51:57.055Z,25.88
2022-11-03T15:54:59.929Z,27.35
2022-11-03T15:58:02.615Z,25.88
2022-11-03T16:01:05.579Z,22.00
2022-11-03T16:04:08.874Z,22.02
2022-11-03T16:07:11.481Z,20.73
2022-11-03T16:10:14.556Z,21.42
2022-11-03T16:13:17.205Z,20.80
2022-11-03T16:16:20.658Z,21.85
2022-11-03T16:19:23.464Z,24.27
2022-11-03T16:22:26.348Z,24.52
2022-11-03T16:25:29.393Z,23.42
2022-11-03T16:28:32.352Z,23.77
2022-11-03T16:31:35.887Z,22.55
2022-11-03T16:34:38.785Z,26.45
2022-11-03T16:37:41.535Z,33.03
2022-11-03T16:40:45.231Z,31.60
2022-11-03T16:43:49.743Z,27.08
2022-11-03T16:46:52.765Z,31.92
2022-11-03T16:49:58.445Z,31.75
2022-11-03T16:53:02.142Z,38.35
2022-11-03T16:56:05.430Z,38.72
